Airfield :







YOU CAN JOIN US ON...

 
LOGIN :

Register | Disclaimer

   EN    FR    IT 

 









Legend :    VFR   Marginal VFR   IFR   Intensive IFR   Very Intensive IFR
Visi :
Ceiling :
>= 8 km
>= 3000ft
5 to 8 km
1000 to 3000 ft
1500m to 5 km
500 to 1000 ft
800 to 1500m
200 to 500 ft
< 800m
< 200 ft
Symbols :   Thunderstorms  Fog  Heavy snow  Heavy precipitations  Wind > 20 kt






- Airport Elevation : 13 ft
- IATA code : SXM


TNCM - Princess Juliana Int.

CURRENT METAR :
  • 250800Z 10008KT 9999 FEW018 27/23 Q1015

EXPIRED METARs :
  • 250700Z 10007KT 9999 FEW018 27/23 Q1015
  • 250600Z 08005KT 9999 -SHRA SCT016 27/23 Q1015

TAF TNCM
Valid from the 25 at 06:00 until the 26 at 06:00 UTC


250520Z 2506/2606 08008KT P6SM FEW020
FM250900 VRB04KT P6SM VCSH SCT019 SCT035
FM251400 12011KT P6SM SCT022
FM252000 11010KT P6SM FEW015 SCT030
TJZS FIR / North America



MET'MAP, your aeronautical weather chart ! - Copyright ORBIFLY December 2007 - Disclaimer

ORBIFLY MET'MAP TEAM :

Programming & Development : Alexandra Zaïnal
Concept & original design : Baudouin d'Aumeries
Assistance for programming : Marc-Olivier Méhu
Technical & hardware support : Manuel Goepfert

Contact : metmap@orbifly.com




SOURCES & CREDITS :

   NOAA